sensor_id;sensor_type;location;lat;lon;timestamp;pressure;altitude;pressure_sealevel;temperature;humidity
37972;BME280;23794;48.234;8.344;2024-03-08T00:00:37;93971.03;;;1.02;86.53
37972;BME280;23794;48.234;8.344;2024-03-08T00:03:04;93983.75;;;1.17;85.59
37972;BME280;23794;48.234;8.344;2024-03-08T00:05:31;93985.69;;;1.17;85.80
37972;BME280;23794;48.234;8.344;2024-03-08T00:07:58;93988.69;;;0.99;85.07
37972;BME280;23794;48.234;8.344;2024-03-08T00:10:26;93987.63;;;0.88;85.47
37972;BME280;23794;48.234;8.344;2024-03-08T00:12:55;93980.22;;;0.85;85.45
37972;BME280;23794;48.234;8.344;2024-03-08T00:15:21;93975.41;;;0.78;85.83
37972;BME280;23794;48.234;8.344;2024-03-08T00:17:49;93974.91;;;0.88;85.53
37972;BME280;23794;48.234;8.344;2024-03-08T00:20:17;93983.63;;;0.98;84.99
37972;BME280;23794;48.234;8.344;2024-03-08T00:22:46;93975.53;;;0.98;84.89
37972;BME280;23794;48.234;8.344;2024-03-08T00:25:13;93975.50;;;0.82;85.99
37972;BME280;23794;48.234;8.344;2024-03-08T00:27:39;93970.91;;;0.82;85.21
37972;BME280;23794;48.234;8.344;2024-03-08T00:30:07;93967.50;;;0.85;85.07
37972;BME280;23794;48.234;8.344;2024-03-08T00:32:35;93966.63;;;0.81;84.96
37972;BME280;23794;48.234;8.344;2024-03-08T00:35:02;93964.97;;;0.77;84.79
37972;BME280;23794;48.234;8.344;2024-03-08T00:37:29;93966.16;;;0.63;85.50
37972;BME280;23794;48.234;8.344;2024-03-08T00:39:56;93959.25;;;0.50;86.04
37972;BME280;23794;48.234;8.344;2024-03-08T00:42:22;93949.69;;;0.40;85.87
37972;BME280;23794;48.234;8.344;2024-03-08T00:44:50;93951.78;;;0.31;85.83
37972;BME280;23794;48.234;8.344;2024-03-08T00:47:18;93944.66;;;0.38;85.38
37972;BME280;23794;48.234;8.344;2024-03-08T00:49:45;93948.34;;;0.46;85.21
37972;BME280;23794;48.234;8.344;2024-03-08T00:52:13;93946.34;;;0.43;85.20
37972;BME280;23794;48.234;8.344;2024-03-08T00:54:39;93948.84;;;0.36;85.37
37972;BME280;23794;48.234;8.344;2024-03-08T00:57:06;93942.31;;;0.37;85.39
37972;BME280;23794;48.234;8.344;2024-03-08T00:59:33;93941.53;;;0.36;85.08
37972;BME280;23794;48.234;8.344;2024-03-08T01:02:01;93934.59;;;0.35;85.07
37972;BME280;23794;48.234;8.344;2024-03-08T01:04:28;93932.66;;;0.36;85.01
37972;BME280;23794;48.234;8.344;2024-03-08T01:06:59;93933.13;;;0.38;85.02
37972;BME280;23794;48.234;8.344;2024-03-08T01:09:26;93939.22;;;0.22;85.70
37972;BME280;23794;48.234;8.344;2024-03-08T01:11:54;93923.78;;;0.07;85.66
37972;BME280;23794;48.234;8.344;2024-03-08T01:14:22;93924.00;;;0.02;86.01
37972;BME280;23794;48.234;8.344;2024-03-08T01:16:49;93919.88;;;-0.08;86.37
37972;BME280;23794;48.234;8.344;2024-03-08T01:19:16;93920.22;;;-0.10;86.25
37972;BME280;23794;48.234;8.344;2024-03-08T01:21:43;93923.13;;;-0.02;86.73
37972;BME280;23794;48.234;8.344;2024-03-08T01:24:10;93911.97;;;0.12;86.13
37972;BME280;23794;48.234;8.344;2024-03-08T01:26:37;93904.22;;;0.10;86.07
37972;BME280;23794;48.234;8.344;2024-03-08T01:29:04;93906.19;;;0.25;85.31
37972;BME280;23794;48.234;8.344;2024-03-08T01:31:31;93908.47;;;0.23;85.30
37972;BME280;23794;48.234;8.344;2024-03-08T01:34:00;93905.16;;;0.30;85.07
37972;BME280;23794;48.234;8.344;2024-03-08T01:36:27;93901.19;;;0.40;85.21
37972;BME280;23794;48.234;8.344;2024-03-08T01:38:53;93899.69;;;0.26;85.04
37972;BME280;23794;48.234;8.344;2024-03-08T01:41:20;93895.00;;;0.23;85.11
37972;BME280;23794;48.234;8.344;2024-03-08T01:43:47;93888.47;;;0.24;85.19
37972;BME280;23794;48.234;8.344;2024-03-08T01:46:18;93887.09;;;0.31;84.75
37972;BME280;23794;48.234;8.344;2024-03-08T01:48:45;93880.16;;;0.30;84.50
37972;BME280;23794;48.234;8.344;2024-03-08T01:51:12;93875.25;;;0.19;85.12
37972;BME280;23794;48.234;8.344;2024-03-08T01:53:42;93874.31;;;0.27;84.92
37972;BME280;23794;48.234;8.344;2024-03-08T01:56:13;93869.09;;;0.06;85.19
37972;BME280;23794;48.234;8.344;2024-03-08T01:58:41;93866.47;;;-0.06;85.52
37972;BME280;23794;48.234;8.344;2024-03-08T02:01:12;93866.91;;;-0.04;86.71
37972;BME280;23794;48.234;8.344;2024-03-08T02:03:41;93860.69;;;0.08;85.57
37972;BME280;23794;48.234;8.344;2024-03-08T02:06:13;93862.38;;;0.13;85.40
37972;BME280;23794;48.234;8.344;2024-03-08T02:08:44;93849.88;;;0.20;85.30
37972;BME280;23794;48.234;8.344;2024-03-08T02:11:11;93857.09;;;0.04;85.50
37972;BME280;23794;48.234;8.344;2024-03-08T02:13:38;93851.06;;;0.07;85.51
37972;BME280;23794;48.234;8.344;2024-03-08T02:16:05;93846.22;;;0.00;85.76
37972;BME280;23794;48.234;8.344;2024-03-08T02:18:34;93843.63;;;0.04;86.04
37972;BME280;23794;48.234;8.344;2024-03-08T02:21:03;93836.56;;;0.12;86.21
37972;BME280;23794;48.234;8.344;2024-03-08T02:23:30;93839.91;;;0.21;85.16
37972;BME280;23794;48.234;8.344;2024-03-08T02:25:57;93840.00;;;0.24;85.31
37972;BME280;23794;48.234;8.344;2024-03-08T02:28:24;93843.81;;;0.23;85.47
37972;BME280;23794;48.234;8.344;2024-03-08T02:30:52;93831.19;;;0.27;85.53
37972;BME280;23794;48.234;8.344;2024-03-08T02:33:23;93833.63;;;0.33;85.34
37972;BME280;23794;48.234;8.344;2024-03-08T02:35:50;93829.50;;;0.35;85.13
37972;BME280;23794;48.234;8.344;2024-03-08T02:38:19;93833.91;;;0.43;84.62
37972;BME280;23794;48.234;8.344;2024-03-08T02:40:47;93826.25;;;0.30;84.38
37972;BME280;23794;48.234;8.344;2024-03-08T02:43:15;93821.53;;;0.26;84.42
37972;BME280;23794;48.234;8.344;2024-03-08T02:45:42;93821.34;;;0.19;85.37
37972;BME280;23794;48.234;8.344;2024-03-08T02:48:08;93818.22;;;0.17;85.89
37972;BME280;23794;48.234;8.344;2024-03-08T02:50:35;93821.81;;;0.37;84.95
37972;BME280;23794;48.234;8.344;2024-03-08T02:53:03;93819.13;;;0.37;84.49
37972;BME280;23794;48.234;8.344;2024-03-08T02:55:30;93818.00;;;0.38;84.75
37972;BME280;23794;48.234;8.344;2024-03-08T02:57:57;93822.63;;;0.54;84.87
37972;BME280;23794;48.234;8.344;2024-03-08T03:00:23;93810.09;;;0.46;85.23
37972;BME280;23794;48.234;8.344;2024-03-08T03:02:51;93807.94;;;0.51;85.19
37972;BME280;23794;48.234;8.344;2024-03-08T03:05:21;93803.69;;;0.50;84.13
37972;BME280;23794;48.234;8.344;2024-03-08T03:07:47;93805.94;;;0.48;83.83
37972;BME280;23794;48.234;8.344;2024-03-08T03:10:16;93803.09;;;0.57;84.19
37972;BME280;23794;48.234;8.344;2024-03-08T03:12:44;93800.81;;;0.59;83.38
37972;BME280;23794;48.234;8.344;2024-03-08T03:15:12;93791.19;;;0.58;83.08
37972;BME280;23794;48.234;8.344;2024-03-08T03:17:41;93795.50;;;0.63;82.98
37972;BME280;23794;48.234;8.344;2024-03-08T03:20:08;93795.09;;;0.61;82.37
37972;BME280;23794;48.234;8.344;2024-03-08T03:22:42;93793.94;;;0.46;82.66
37972;BME280;23794;48.234;8.344;2024-03-08T03:25:11;93788.22;;;0.47;83.16
37972;BME280;23794;48.234;8.344;2024-03-08T03:27:39;93790.03;;;0.43;83.51
37972;BME280;23794;48.234;8.344;2024-03-08T03:30:07;93790.56;;;0.49;83.31
37972;BME280;23794;48.234;8.344;2024-03-08T03:32:49;93785.59;;;0.35;83.01
37972;BME280;23794;48.234;8.344;2024-03-08T03:35:18;93782.22;;;0.38;82.92
37972;BME280;23794;48.234;8.344;2024-03-08T03:37:47;93783.16;;;0.46;82.74
37972;BME280;23794;48.234;8.344;2024-03-08T03:40:34;93785.84;;;0.30;83.28
37972;BME280;23794;48.234;8.344;2024-03-08T03:43:01;93782.88;;;0.35;83.14
37972;BME280;23794;48.234;8.344;2024-03-08T03:45:30;93776.28;;;0.32;82.64
37972;BME280;23794;48.234;8.344;2024-03-08T03:48:04;93778.50;;;0.14;82.75
37972;BME280;23794;48.234;8.344;2024-03-08T03:50:31;93766.16;;;0.13;84.15
37972;BME280;23794;48.234;8.344;2024-03-08T03:53:01;93761.84;;;0.24;83.46
37972;BME280;23794;48.234;8.344;2024-03-08T03:55:29;93765.84;;;0.31;83.06
37972;BME280;23794;48.234;8.344;2024-03-08T03:57:55;93766.53;;;0.27;83.02
37972;BME280;23794;48.234;8.344;2024-03-08T04:00:22;93757.41;;;0.32;82.78
37972;BME280;23794;48.234;8.344;2024-03-08T04:02:49;93764.69;;;0.16;83.13
37972;BME280;23794;48.234;8.344;2024-03-08T04:05:16;93760.25;;;0.07;83.67
37972;BME280;23794;48.234;8.344;2024-03-08T04:07:43;93756.69;;;0.03;83.94
37972;BME280;23794;48.234;8.344;2024-03-08T04:10:11;93750.19;;;0.04;84.06
37972;BME280;23794;48.234;8.344;2024-03-08T04:12:38;93755.69;;;-0.05;84.63
37972;BME280;23794;48.234;8.344;2024-03-08T04:15:05;93750.19;;;0.04;84.48
37972;BME280;23794;48.234;8.344;2024-03-08T04:17:34;93755.56;;;0.04;84.38
37972;BME280;23794;48.234;8.344;2024-03-08T04:20:04;93748.69;;;0.07;84.32
37972;BME280;23794;48.234;8.344;2024-03-08T04:22:36;93747.13;;;0.06;84.20
37972;BME280;23794;48.234;8.344;2024-03-08T04:25:03;93747.22;;;0.09;84.05
37972;BME280;23794;48.234;8.344;2024-03-08T04:27:30;93744.88;;;0.08;84.26
37972;BME280;23794;48.234;8.344;2024-03-08T04:29:56;93741.84;;;0.09;84.05
37972;BME280;23794;48.234;8.344;2024-03-08T04:32:23;93751.97;;;0.00;84.46
37972;BME280;23794;48.234;8.344;2024-03-08T04:34:50;93745.38;;;-0.02;84.46
37972;BME280;23794;48.234;8.344;2024-03-08T04:37:17;93746.59;;;0.00;84.82
37972;BME280;23794;48.234;8.344;2024-03-08T04:39:49;93742.09;;;0.04;84.64
37972;BME280;23794;48.234;8.344;2024-03-08T04:42:16;93740.44;;;0.16;84.46
37972;BME280;23794;48.234;8.344;2024-03-08T04:44:44;93737.41;;;0.17;84.35
37972;BME280;23794;48.234;8.344;2024-03-08T04:47:12;93738.75;;;0.23;84.32
37972;BME280;23794;48.234;8.344;2024-03-08T04:49:38;93736.47;;;0.25;84.02
37972;BME280;23794;48.234;8.344;2024-03-08T04:52:05;93731.16;;;0.29;84.11
37972;BME280;23794;48.234;8.344;2024-03-08T04:54:33;93739.59;;;0.27;84.07
37972;BME280;23794;48.234;8.344;2024-03-08T04:57:00;93737.78;;;0.32;84.33
37972;BME280;23794;48.234;8.344;2024-03-08T04:59:29;93731.50;;;0.43;84.58
37972;BME280;23794;48.234;8.344;2024-03-08T05:01:56;93734.81;;;0.53;84.02
37972;BME280;23794;48.234;8.344;2024-03-08T05:04:23;93740.91;;;0.66;84.04
37972;BME280;23794;48.234;8.344;2024-03-08T05:06:49;93731.09;;;0.57;83.75
37972;BME280;23794;48.234;8.344;2024-03-08T05:09:16;93732.38;;;0.64;83.78
37972;BME280;23794;48.234;8.344;2024-03-08T05:11:44;93727.78;;;0.64;83.56
37972;BME280;23794;48.234;8.344;2024-03-08T05:14:11;93728.91;;;0.63;83.38
37972;BME280;23794;48.234;8.344;2024-03-08T05:16:47;93731.00;;;0.54;83.49
37972;BME280;23794;48.234;8.344;2024-03-08T05:19:17;93732.66;;;0.58;83.63
37972;BME280;23794;48.234;8.344;2024-03-08T05:21:47;93725.84;;;0.65;83.75
37972;BME280;23794;48.234;8.344;2024-03-08T05:24:15;93725.84;;;0.65;83.34
37972;BME280;23794;48.234;8.344;2024-03-08T05:26:43;93725.50;;;0.66;83.64
37972;BME280;23794;48.234;8.344;2024-03-08T05:29:11;93718.91;;;0.64;83.14
37972;BME280;23794;48.234;8.344;2024-03-08T05:31:51;93723.34;;;0.40;82.96
37972;BME280;23794;48.234;8.344;2024-03-08T05:34:21;93722.91;;;0.22;83.86
37972;BME280;23794;48.234;8.344;2024-03-08T05:36:48;93722.47;;;0.20;84.35
37972;BME280;23794;48.234;8.344;2024-03-08T05:39:18;93721.78;;;0.23;83.98
37972;BME280;23794;48.234;8.344;2024-03-08T05:41:46;93718.22;;;0.19;83.84
37972;BME280;23794;48.234;8.344;2024-03-08T05:44:13;93715.16;;;0.20;84.26
37972;BME280;23794;48.234;8.344;2024-03-08T05:46:40;93720.19;;;0.06;84.33
37972;BME280;23794;48.234;8.344;2024-03-08T05:49:07;93726.78;;;-0.08;85.06
37972;BME280;23794;48.234;8.344;2024-03-08T05:51:38;93719.72;;;-0.12;85.13
37972;BME280;23794;48.234;8.344;2024-03-08T05:54:11;93709.91;;;-0.05;84.71
37972;BME280;23794;48.234;8.344;2024-03-08T05:56:41;93719.91;;;-0.21;85.77
37972;BME280;23794;48.234;8.344;2024-03-08T05:59:12;93716.75;;;-0.23;85.56
37972;BME280;23794;48.234;8.344;2024-03-08T06:01:39;93713.72;;;-0.22;85.98
37972;BME280;23794;48.234;8.344;2024-03-08T06:04:08;93717.88;;;-0.24;86.18
37972;BME280;23794;48.234;8.344;2024-03-08T06:06:35;93711.91;;;-0.17;86.28
37972;BME280;23794;48.234;8.344;2024-03-08T06:09:04;93712.00;;;-0.14;85.95
37972;BME280;23794;48.234;8.344;2024-03-08T06:11:38;93706.63;;;-0.14;85.97
37972;BME280;23794;48.234;8.344;2024-03-08T06:14:04;93714.78;;;-0.10;85.85
37972;BME280;23794;48.234;8.344;2024-03-08T06:16:32;93710.09;;;-0.13;86.21
37972;BME280;23794;48.234;8.344;2024-03-08T06:19:00;93712.47;;;0.04;85.50
37972;BME280;23794;48.234;8.344;2024-03-08T06:21:28;93714.28;;;0.00;85.32
37972;BME280;23794;48.234;8.344;2024-03-08T06:23:56;93705.44;;;-0.00;85.54
37972;BME280;23794;48.234;8.344;2024-03-08T06:26:24;93710.09;;;0.03;85.37
37972;BME280;23794;48.234;8.344;2024-03-08T06:28:55;93708.88;;;0.00;85.53
37972;BME280;23794;48.234;8.344;2024-03-08T06:31:22;93704.31;;;0.01;85.74
37972;BME280;23794;48.234;8.344;2024-03-08T06:33:49;93714.28;;;0.00;85.45
37972;BME280;23794;48.234;8.344;2024-03-08T06:36:17;93712.19;;;-0.07;85.53
37972;BME280;23794;48.234;8.344;2024-03-08T06:38:45;93708.13;;;-0.00;85.54
37972;BME280;23794;48.234;8.344;2024-03-08T06:41:12;93712.69;;;-0.01;85.29
37972;BME280;23794;48.234;8.344;2024-03-08T06:43:42;93708.34;;;-0.06;85.34
37972;BME280;23794;48.234;8.344;2024-03-08T06:46:09;93711.94;;;-0.01;86.11
37972;BME280;23794;48.234;8.344;2024-03-08T06:48:38;93714.19;;;-0.03;85.64
37972;BME280;23794;48.234;8.344;2024-03-08T06:51:05;93709.44;;;0.06;85.49
37972;BME280;23794;48.234;8.344;2024-03-08T06:53:32;93716.13;;;0.12;85.12
37972;BME280;23794;48.234;8.344;2024-03-08T06:55:58;93712.88;;;0.06;85.10
37972;BME280;23794;48.234;8.344;2024-03-08T06:58:25;93710.09;;;0.03;85.41
37972;BME280;23794;48.234;8.344;2024-03-08T07:00:52;93707.19;;;0.08;85.12
37972;BME280;23794;48.234;8.344;2024-03-08T07:03:19;93702.91;;;0.07;85.43
37972;BME280;23794;48.234;8.344;2024-03-08T07:05:45;93711.09;;;0.10;85.24
37972;BME280;23794;48.234;8.344;2024-03-08T07:08:12;93707.25;;;0.12;85.23
37972;BME280;23794;48.234;8.344;2024-03-08T07:10:40;93701.94;;;-0.01;85.35
37972;BME280;23794;48.234;8.344;2024-03-08T07:13:11;93708.47;;;-0.02;85.49
37972;BME280;23794;48.234;8.344;2024-03-08T07:15:38;93704.81;;;0.06;85.37
37972;BME280;23794;48.234;8.344;2024-03-08T07:18:04;93700.66;;;0.25;85.48
37972;BME280;23794;48.234;8.344;2024-03-08T07:20:31;93697.53;;;0.39;85.15
37972;BME280;23794;48.234;8.344;2024-03-08T07:22:58;93697.28;;;0.44;84.93
37972;BME280;23794;48.234;8.344;2024-03-08T07:25:24;93689.09;;;0.56;84.06
37972;BME280;23794;48.234;8.344;2024-03-08T07:27:55;93684.81;;;0.71;84.22
37972;BME280;23794;48.234;8.344;2024-03-08T07:30:25;93690.22;;;0.71;83.36
37972;BME280;23794;48.234;8.344;2024-03-08T07:33:11;93688.03;;;0.61;83.48
37972;BME280;23794;48.234;8.344;2024-03-08T07:35:41;93688.72;;;0.74;83.06
37972;BME280;23794;48.234;8.344;2024-03-08T07:38:11;93690.75;;;0.45;83.30
37972;BME280;23794;48.234;8.344;2024-03-08T07:40:39;93684.41;;;0.37;83.73
37972;BME280;23794;48.234;8.344;2024-03-08T07:43:13;93688.31;;;0.56;84.10
37972;BME280;23794;48.234;8.344;2024-03-08T07:45:40;93684.72;;;0.68;83.62
37972;BME280;23794;48.234;8.344;2024-03-08T07:48:07;93679.94;;;0.77;82.94
37972;BME280;23794;48.234;8.344;2024-03-08T07:50:38;93688.41;;;0.60;82.91
37972;BME280;23794;48.234;8.344;2024-03-08T07:53:07;93679.09;;;0.57;82.99
37972;BME280;23794;48.234;8.344;2024-03-08T07:55:34;93684.03;;;0.71;83.43
37972;BME280;23794;48.234;8.344;2024-03-08T07:58:02;93680.06;;;1.00;83.11
37972;BME280;23794;48.234;8.344;2024-03-08T08:00:32;93676.22;;;1.01;82.24
37972;BME280;23794;48.234;8.344;2024-03-08T08:02:59;93670.94;;;0.89;82.42
37972;BME280;23794;48.234;8.344;2024-03-08T08:05:25;93674.59;;;0.97;82.85
37972;BME280;23794;48.234;8.344;2024-03-08T08:07:53;93662.81;;;1.05;82.40
37972;BME280;23794;48.234;8.344;2024-03-08T08:10:20;93671.41;;;1.11;82.14
37972;BME280;23794;48.234;8.344;2024-03-08T08:12:52;93663.88;;;1.20;82.20
37972;BME280;23794;48.234;8.344;2024-03-08T08:15:19;93663.25;;;1.27;82.17
37972;BME280;23794;48.234;8.344;2024-03-08T08:17:46;93668.28;;;1.28;81.54
37972;BME280;23794;48.234;8.344;2024-03-08T08:20:14;93668.66;;;1.27;81.98
37972;BME280;23794;48.234;8.344;2024-03-08T08:22:41;93666.09;;;1.34;82.43
37972;BME280;23794;48.234;8.344;2024-03-08T08:25:07;93661.97;;;1.40;81.77
37972;BME280;23794;48.234;8.344;2024-03-08T08:27:34;93654.78;;;1.28;81.20
37972;BME280;23794;48.234;8.344;2024-03-08T08:30:03;93663.69;;;1.29;81.31
37972;BME280;23794;48.234;8.344;2024-03-08T08:32:35;93659.41;;;1.28;82.00
37972;BME280;23794;48.234;8.344;2024-03-08T08:35:06;93649.91;;;1.34;81.30
37972;BME280;23794;48.234;8.344;2024-03-08T08:37:32;93652.19;;;1.51;80.88
37972;BME280;23794;48.234;8.344;2024-03-08T08:40:00;93649.16;;;1.76;80.75
37972;BME280;23794;48.234;8.344;2024-03-08T08:42:32;93647.75;;;1.63;80.24
37972;BME280;23794;48.234;8.344;2024-03-08T08:44:58;93641.72;;;1.69;80.59
37972;BME280;23794;48.234;8.344;2024-03-08T08:47:35;93646.16;;;1.81;80.89
37972;BME280;23794;48.234;8.344;2024-03-08T08:50:03;93645.81;;;1.83;78.78
37972;BME280;23794;48.234;8.344;2024-03-08T08:52:31;93650.63;;;1.93;79.30
37972;BME280;23794;48.234;8.344;2024-03-08T08:54:58;93650.13;;;1.88;78.42
37972;BME280;23794;48.234;8.344;2024-03-08T08:57:25;93657.41;;;1.64;79.39
37972;BME280;23794;48.234;8.344;2024-03-08T08:59:53;93656.91;;;1.58;79.72
37972;BME280;23794;48.234;8.344;2024-03-08T09:02:20;93650.19;;;1.48;79.27
37972;BME280;23794;48.234;8.344;2024-03-08T09:04:47;93649.53;;;1.55;79.60
37972;BME280;23794;48.234;8.344;2024-03-08T09:07:17;93650.19;;;1.68;79.09
37972;BME280;23794;48.234;8.344;2024-03-08T09:09:45;93650.38;;;1.59;79.38
37972;BME280;23794;48.234;8.344;2024-03-08T09:12:12;93648.00;;;1.77;79.34
37972;BME280;23794;48.234;8.344;2024-03-08T09:14:42;93639.19;;;1.80;78.81
37972;BME280;23794;48.234;8.344;2024-03-08T09:17:09;93628.66;;;1.95;78.38
37972;BME280;23794;48.234;8.344;2024-03-08T09:19:36;93632.78;;;1.89;78.14
37972;BME280;23794;48.234;8.344;2024-03-08T09:22:04;93633.63;;;1.93;78.44
37972;BME280;23794;48.234;8.344;2024-03-08T09:24:31;93634.22;;;2.06;78.59
37972;BME280;23794;48.234;8.344;2024-03-08T09:26:57;93625.41;;;2.09;77.90
37972;BME280;23794;48.234;8.344;2024-03-08T09:29:27;93629.06;;;2.20;78.59
37972;BME280;23794;48.234;8.344;2024-03-08T09:31:54;93627.94;;;2.48;78.64
37972;BME280;23794;48.234;8.344;2024-03-08T09:34:22;93627.00;;;2.37;76.73
37972;BME280;23794;48.234;8.344;2024-03-08T09:36:57;93621.09;;;2.04;77.73
37972;BME280;23794;48.234;8.344;2024-03-08T09:39:24;93621.00;;;2.24;78.20
37972;BME280;23794;48.234;8.344;2024-03-08T09:41:53;93621.97;;;2.12;77.46
37972;BME280;23794;48.234;8.344;2024-03-08T09:44:22;93620.19;;;2.20;77.80
37972;BME280;23794;48.234;8.344;2024-03-08T09:46:53;93619.50;;;2.49;77.31
37972;BME280;23794;48.234;8.344;2024-03-08T09:49:20;93614.66;;;2.62;76.27
37972;BME280;23794;48.234;8.344;2024-03-08T09:51:47;93611.88;;;2.59;76.68
37972;BME280;23794;48.234;8.344;2024-03-08T09:54:15;93611.22;;;2.65;76.88
37972;BME280;23794;48.234;8.344;2024-03-08T09:56:51;93605.31;;;2.60;76.46
37972;BME280;23794;48.234;8.344;2024-03-08T09:59:17;93605.56;;;2.78;76.72
37972;BME280;23794;48.234;8.344;2024-03-08T10:01:50;93599.19;;;3.20;76.75
37972;BME280;23794;48.234;8.344;2024-03-08T10:04:18;93599.91;;;3.51;76.06
37972;BME280;23794;48.234;8.344;2024-03-08T10:06:46;93602.25;;;3.53;73.97
37972;BME280;23794;48.234;8.344;2024-03-08T10:09:14;93591.38;;;3.49;74.25
37972;BME280;23794;48.234;8.344;2024-03-08T10:11:40;93595.66;;;3.50;73.71
37972;BME280;23794;48.234;8.344;2024-03-08T10:14:08;93591.44;;;3.56;73.75
37972;BME280;23794;48.234;8.344;2024-03-08T10:16:35;93584.47;;;3.55;71.88
37972;BME280;23794;48.234;8.344;2024-03-08T10:19:02;93579.84;;;3.56;73.77
37972;BME280;23794;48.234;8.344;2024-03-08T10:21:29;93570.25;;;3.62;72.71
37972;BME280;23794;48.234;8.344;2024-03-08T10:23:56;93571.53;;;3.75;73.12
37972;BME280;23794;48.234;8.344;2024-03-08T10:26:23;93559.63;;;3.87;71.76
37972;BME280;23794;48.234;8.344;2024-03-08T10:28:51;93564.47;;;3.67;72.75
37972;BME280;23794;48.234;8.344;2024-03-08T10:31:19;93562.00;;;3.92;72.12
37972;BME280;23794;48.234;8.344;2024-03-08T10:33:46;93569.38;;;3.96;71.66
37972;BME280;23794;48.234;8.344;2024-03-08T10:36:14;93560.31;;;3.77;71.96
37972;BME280;23794;48.234;8.344;2024-03-08T10:38:42;93563.84;;;3.81;72.75
37972;BME280;23794;48.234;8.344;2024-03-08T10:41:10;93556.78;;;4.18;72.02
37972;BME280;23794;48.234;8.344;2024-03-08T10:43:46;93549.78;;;4.13;70.94
37972;BME280;23794;48.234;8.344;2024-03-08T10:49:07;93552.06;;;4.07;72.16
37972;BME280;23794;48.234;8.344;2024-03-08T10:51:35;93544.84;;;4.26;72.03
37972;BME280;23794;48.234;8.344;2024-03-08T10:54:05;93551.03;;;4.23;71.05
37972;BME280;23794;48.234;8.344;2024-03-08T10:56:33;93557.28;;;4.34;71.10
37972;BME280;23794;48.234;8.344;2024-03-08T10:59:00;93550.31;;;4.33;71.21
37972;BME280;23794;48.234;8.344;2024-03-08T11:01:27;93551.91;;;4.42;71.00
37972;BME280;23794;48.234;8.344;2024-03-08T11:03:54;93543.91;;;4.63;70.65
37972;BME280;23794;48.234;8.344;2024-03-08T11:06:30;93548.16;;;4.61;70.32
37972;BME280;23794;48.234;8.344;2024-03-08T11:08:57;93544.53;;;4.38;71.06
37972;BME280;23794;48.234;8.344;2024-03-08T11:11:30;93548.84;;;4.43;70.94
37972;BME280;23794;48.234;8.344;2024-03-08T11:14:01;93541.88;;;4.46;70.57
37972;BME280;23794;48.234;8.344;2024-03-08T11:19:05;93546.88;;;4.40;70.90
37972;BME280;23794;48.234;8.344;2024-03-08T11:21:32;93537.66;;;4.52;71.08
37972;BME280;23794;48.234;8.344;2024-03-08T11:24:07;93540.47;;;4.74;70.76
37972;BME280;23794;48.234;8.344;2024-03-08T11:26:34;93528.94;;;4.91;69.75
37972;BME280;23794;48.234;8.344;2024-03-08T11:29:32;93526.25;;;4.98;69.77
37972;BME280;23794;48.234;8.344;2024-03-08T11:34:39;93528.34;;;5.27;68.70
37972;BME280;23794;48.234;8.344;2024-03-08T11:37:12;93515.56;;;5.45;67.81
37972;BME280;23794;48.234;8.344;2024-03-08T11:39:40;93518.63;;;5.26;67.73
37972;BME280;23794;48.234;8.344;2024-03-08T11:42:06;93509.69;;;5.25;67.52
37972;BME280;23794;48.234;8.344;2024-03-08T11:44:33;93498.88;;;5.47;68.22
37972;BME280;23794;48.234;8.344;2024-03-08T11:47:00;93497.00;;;5.94;67.80
37972;BME280;23794;48.234;8.344;2024-03-08T11:49:27;93491.56;;;5.98;66.31
37972;BME280;23794;48.234;8.344;2024-03-08T11:51:54;93495.03;;;5.70;66.06
37972;BME280;23794;48.234;8.344;2024-03-08T11:54:21;93485.31;;;5.69;67.77
37972;BME280;23794;48.234;8.344;2024-03-08T11:56:51;93491.94;;;6.11;67.25
37972;BME280;23794;48.234;8.344;2024-03-08T11:59:18;93479.84;;;6.55;65.75
37972;BME280;23794;48.234;8.344;2024-03-08T12:01:59;93488.31;;;6.86;65.40
37972;BME280;23794;48.234;8.344;2024-03-08T12:04:28;93471.63;;;6.70;63.19
37972;BME280;23794;48.234;8.344;2024-03-08T12:06:55;93477.53;;;6.39;64.53
37972;BME280;23794;48.234;8.344;2024-03-08T12:09:21;93460.47;;;6.17;65.54
37972;BME280;23794;48.234;8.344;2024-03-08T12:11:48;93467.06;;;6.20;65.62
37972;BME280;23794;48.234;8.344;2024-03-08T12:14:17;93456.94;;;6.42;64.66
37972;BME280;23794;48.234;8.344;2024-03-08T12:16:44;93453.75;;;6.65;65.61
37972;BME280;23794;48.234;8.344;2024-03-08T12:19:11;93445.00;;;7.14;65.08
37972;BME280;23794;48.234;8.344;2024-03-08T12:21:38;93437.78;;;7.52;61.82
37972;BME280;23794;48.234;8.344;2024-03-08T12:24:15;93443.00;;;7.85;61.95
37972;BME280;23794;48.234;8.344;2024-03-08T12:26:43;93435.84;;;8.06;61.37
37972;BME280;23794;48.234;8.344;2024-03-08T12:29:21;93434.44;;;7.86;60.27
37972;BME280;23794;48.234;8.344;2024-03-08T12:31:55;93431.88;;;8.10;61.53
37972;BME280;23794;48.234;8.344;2024-03-08T12:34:27;93434.78;;;7.88;58.94
37972;BME280;23794;48.234;8.344;2024-03-08T12:37:05;93428.38;;;7.61;60.43
37972;BME280;23794;48.234;8.344;2024-03-08T12:39:34;93418.16;;;7.76;59.81
37972;BME280;23794;48.234;8.344;2024-03-08T12:42:02;93415.03;;;7.77;59.66
37972;BME280;23794;48.234;8.344;2024-03-08T12:44:29;93401.91;;;8.07;60.67
37972;BME280;23794;48.234;8.344;2024-03-08T12:46:57;93405.31;;;8.56;60.19
37972;BME280;23794;48.234;8.344;2024-03-08T12:49:27;93407.75;;;8.81;57.75
37972;BME280;23794;48.234;8.344;2024-03-08T12:52:00;93403.00;;;9.17;59.05
37972;BME280;23794;48.234;8.344;2024-03-08T12:54:28;93398.38;;;8.82;56.16
37972;BME280;23794;48.234;8.344;2024-03-08T12:56:58;93402.53;;;8.60;58.64
37972;BME280;23794;48.234;8.344;2024-03-08T12:59:31;93384.72;;;8.82;58.17
37972;BME280;23794;48.234;8.344;2024-03-08T13:02:00;93387.88;;;9.08;58.57
37972;BME280;23794;48.234;8.344;2024-03-08T13:04:29;93384.94;;;9.26;58.62
37972;BME280;23794;48.234;8.344;2024-03-08T13:06:58;93383.94;;;8.82;56.58
37972;BME280;23794;48.234;8.344;2024-03-08T13:09:25;93390.44;;;8.61;57.79
37972;BME280;23794;48.234;8.344;2024-03-08T13:11:54;93378.16;;;8.76;57.47
37972;BME280;23794;48.234;8.344;2024-03-08T13:14:30;93386.41;;;8.73;57.81
37972;BME280;23794;48.234;8.344;2024-03-08T13:17:00;93372.75;;;9.04;56.89
37972;BME280;23794;48.234;8.344;2024-03-08T13:19:31;93367.88;;;9.15;56.65
37972;BME280;23794;48.234;8.344;2024-03-08T13:22:01;93367.09;;;9.45;57.39
37972;BME280;23794;48.234;8.344;2024-03-08T13:24:33;93361.53;;;8.94;56.28